Ana Sayfa
METAR-TAF:

METAR-TAF

Havaalanları :

Chichén Itzá, Meksika

Enlem: 20-38-30N, Boylam: 088-26-58W, yükseklik: 31 m

Güncel hava durumu gözlemi

Rapor saat 20:48 UTC de 55 dakika önce yapıldı.
Rüzgar kuzeydoğudan 10 kt
Sıcaklık 25°C
Nem 69%
Basınç 1019 hPa
Görüş mesafesi: 12.9 km
3000 ft yükseklikte parçalı çok bulutlu, Kümülonimbus.
15000 ft yükseklikte çok bulutlu

METAR: MMCT 202048Z 04010KT 8SM BKN030CB OVC150 25/19 A3008 RMK 8/32/ BINOVC

Saat: 15:43 (21:43 UTC)


TAF: eksik

4.000'den fazla havaalanı için hava durumu gözlemleri ve tahminleri (METAR ve TAF raporları).

Kullanılabilir istasyonlar harita üzerinde sarı ve kırmızı noktalarla gösterilir.

İstasyonun adını görmek için fareyi noktanın üzerinde gezdirin.

Sonrasında hava gözlem ve tahminlerini görmek için tıklayın.

Haritayı değiştirmek için: yaklaştırmak için siyah artı işaretli yeşil düğmeye ve uzaklaştırmak için de eksi işaretli düğmeye hızla tıklayın; bitişik haritalar için yeşil okları kullanın.


METAR-TAF: